createdAt,value
2022-08-24T00:00:22.655Z,15.03
2022-08-24T00:05:25.320Z,13.57
2022-08-24T00:10:28.079Z,14.23
2022-08-24T00:15:30.658Z,15.17
2022-08-24T00:20:33.758Z,15.35
2022-08-24T00:25:37.158Z,15.77
2022-08-24T00:30:39.936Z,16.73
2022-08-24T00:35:42.751Z,16.73
2022-08-24T00:40:47.919Z,16.00
2022-08-24T00:46:19.418Z,16.07
2022-08-24T00:51:34.547Z,16.05
2022-08-24T00:56:51.360Z,14.98
2022-08-24T01:01:54.854Z,14.67
2022-08-24T01:06:58.590Z,15.20
2022-08-24T01:12:01.762Z,14.37
2022-08-24T01:17:22.694Z,16.93
2022-08-24T01:23:06.824Z,16.27
2022-08-24T01:28:14.412Z,17.47
2022-08-24T01:33:28.504Z,13.73
2022-08-24T01:38:31.905Z,14.52
2022-08-24T01:43:36.959Z,15.33
2022-08-24T01:48:42.761Z,15.00
2022-08-24T01:53:45.881Z,16.30
2022-08-24T01:58:49.500Z,13.77
2022-08-24T02:03:52.158Z,14.03
2022-08-24T02:08:55.683Z,15.60
2022-08-24T02:14:01.525Z,12.93
2022-08-24T02:19:04.397Z,14.73
2022-08-24T02:24:07.587Z,14.82
2022-08-24T02:29:10.109Z,16.17
2022-08-24T02:34:12.716Z,15.17
2022-08-24T02:39:15.329Z,16.77
2022-08-24T02:44:17.962Z,16.43
2022-08-24T02:49:23.398Z,16.07
2022-08-24T02:54:25.986Z,17.63
2022-08-24T02:59:28.583Z,17.60
2022-08-24T03:04:31.153Z,18.40
2022-08-24T03:09:33.697Z,19.00
2022-08-24T03:14:41.204Z,15.73
2022-08-24T03:19:43.815Z,20.97
2022-08-24T03:24:46.438Z,18.33
2022-08-24T03:29:49.885Z,19.70
2022-08-24T03:34:52.764Z,17.87
2022-08-24T03:39:55.404Z,20.85
2022-08-24T03:44:58.060Z,20.98
2022-08-24T03:50:00.724Z,17.43
2022-08-24T03:55:05.174Z,20.40
2022-08-24T04:00:11.144Z,25.03
2022-08-24T04:05:13.723Z,22.37
2022-08-24T04:10:18.555Z,25.10
2022-08-24T04:15:21.121Z,25.60
2022-08-24T04:20:25.910Z,26.27
2022-08-24T04:25:28.512Z,25.15
2022-08-24T04:30:31.560Z,19.92
2022-08-24T04:35:38.521Z,19.20
2022-08-24T04:40:42.738Z,22.80
2022-08-24T04:45:51.462Z,21.30
2022-08-24T04:50:54.068Z,17.57
2022-08-24T04:55:56.631Z,17.38
2022-08-24T05:00:59.320Z,22.43
2022-08-24T05:06:01.965Z,18.73
2022-08-24T05:11:09.017Z,22.45
2022-08-24T05:16:14.263Z,20.63
2022-08-24T05:21:19.123Z,17.50
2022-08-24T05:26:26.524Z,19.80
2022-08-24T05:31:32.453Z,23.70
2022-08-24T05:36:40.992Z,22.27
2022-08-24T05:41:44.900Z,25.30
2022-08-24T05:46:47.573Z,23.67
2022-08-24T05:51:50.242Z,26.60
2022-08-24T05:56:52.837Z,22.83
2022-08-24T06:01:55.442Z,23.40
2022-08-24T06:06:58.016Z,26.60
2022-08-24T06:12:00.649Z,24.05
2022-08-24T06:17:06.161Z,23.85
2022-08-24T06:22:09.255Z,26.40
2022-08-24T06:27:22.439Z,27.33
2022-08-24T06:32:25.863Z,26.67
2022-08-24T06:37:29.780Z,25.87
2022-08-24T06:42:34.290Z,25.77
2022-08-24T06:47:36.803Z,25.60
2022-08-24T06:52:39.691Z,31.40
2022-08-24T06:57:42.646Z,27.42
2022-08-24T07:02:45.301Z,27.02
2022-08-24T07:07:48.065Z,24.30
2022-08-24T07:12:50.903Z,29.02
2022-08-24T07:17:53.949Z,24.70
2022-08-24T07:22:56.715Z,28.73
2022-08-24T07:28:00.878Z,26.30
2022-08-24T07:33:03.710Z,28.55
2022-08-24T07:38:07.637Z,24.10
2022-08-24T07:43:10.373Z,27.30
2022-08-24T07:48:14.233Z,24.63
2022-08-24T07:53:20.743Z,24.33
2022-08-24T07:58:24.687Z,23.87
2022-08-24T08:03:29.303Z,29.08
2022-08-24T08:08:33.240Z,25.05
2022-08-24T08:13:37.313Z,28.43
2022-08-24T08:18:40.092Z,25.77
2022-08-24T08:24:01.129Z,23.65
2022-08-24T08:29:04.080Z,24.13
2022-08-24T08:34:07.046Z,23.63
2022-08-24T08:39:12.207Z,22.73
2022-08-24T08:44:34.492Z,22.13
2022-08-24T08:50:07.253Z,26.60
2022-08-24T08:55:21.276Z,29.77
2022-08-24T09:00:26.101Z,25.42
2022-08-24T09:05:47.594Z,23.30
2022-08-24T09:11:27.599Z,26.17
2022-08-24T09:16:41.150Z,25.65
2022-08-24T09:22:05.508Z,24.00
2022-08-24T09:27:32.837Z,22.48
2022-08-24T09:32:50.339Z,23.48
2022-08-24T09:38:26.271Z,23.97
2022-08-24T09:44:08.038Z,21.13
2022-08-24T09:49:38.691Z,24.67
2022-08-24T09:55:26.864Z,25.85
2022-08-24T10:00:48.940Z,23.93
2022-08-24T10:06:00.740Z,25.08
2022-08-24T10:11:24.606Z,24.63
2022-08-24T10:16:27.103Z,19.63
2022-08-24T10:22:03.554Z,23.40
2022-08-24T10:27:18.869Z,23.35
2022-08-24T10:32:54.686Z,23.10
2022-08-24T10:38:45.161Z,25.80
2022-08-24T10:43:53.493Z,23.88
2022-08-24T10:49:02.168Z,23.92
2022-08-24T10:54:14.459Z,25.20
2022-08-24T10:59:32.406Z,30.27
2022-08-24T11:04:40.098Z,29.63
2022-08-24T11:09:54.327Z,29.77
2022-08-24T11:15:03.718Z,29.50
2022-08-24T11:20:32.041Z,23.75
2022-08-24T11:25:40.449Z,25.00
2022-08-24T11:30:51.289Z,26.27
2022-08-24T11:35:56.313Z,19.90
2022-08-24T11:41:16.631Z,18.63
2022-08-24T11:46:48.264Z,22.50
2022-08-24T11:52:09.069Z,20.90
2022-08-24T11:57:22.052Z,22.90
2022-08-24T12:02:33.592Z,18.40
2022-08-24T12:08:03.930Z,17.65
2022-08-24T12:13:12.349Z,16.85
2022-08-24T12:19:02.963Z,17.67
2022-08-24T12:24:28.161Z,15.83
2022-08-24T12:30:13.128Z,16.98
2022-08-24T12:35:31.626Z,18.23
2022-08-24T12:40:59.441Z,20.83
2022-08-24T12:46:07.184Z,19.48
2022-08-24T12:51:18.205Z,18.48
2022-08-24T12:56:29.140Z,19.43
2022-08-24T13:01:37.177Z,19.70
2022-08-24T13:06:53.308Z,19.27
2022-08-24T13:11:59.557Z,20.30
2022-08-24T13:17:02.232Z,21.53
2022-08-24T13:22:10.523Z,21.08
2022-08-24T13:27:13.087Z,22.83
2022-08-24T13:32:47.706Z,22.87
2022-08-24T13:38:34.385Z,19.75
2022-08-24T13:43:45.047Z,21.35
2022-08-24T13:48:56.580Z,17.40
2022-08-24T13:54:10.855Z,25.73
2022-08-24T14:00:00.935Z,20.30
2022-08-24T14:05:39.436Z,18.53
2022-08-24T14:10:53.643Z,19.73
2022-08-24T14:16:25.274Z,23.60
2022-08-24T14:21:42.659Z,19.25
2022-08-24T14:26:46.366Z,18.43
2022-08-24T14:32:04.048Z,18.05
2022-08-24T14:37:14.970Z,20.15
2022-08-24T14:42:17.558Z,19.50
2022-08-24T14:47:32.681Z,17.95
2022-08-24T14:53:02.782Z,15.82
2022-08-24T14:58:29.322Z,17.57
2022-08-24T15:03:47.238Z,18.43
2022-08-24T15:08:50.069Z,16.90
2022-08-24T15:14:08.200Z,18.25
2022-08-24T15:19:36.217Z,19.83
2022-08-24T15:24:44.653Z,17.75
2022-08-24T15:29:59.905Z,21.50
2022-08-24T15:35:03.999Z,19.97
2022-08-24T15:40:18.696Z,21.70
2022-08-24T15:45:21.907Z,19.27
2022-08-24T15:50:34.500Z,19.23
2022-08-24T15:55:42.902Z,20.43
2022-08-24T16:01:05.178Z,23.77
2022-08-24T16:06:33.852Z,22.77
2022-08-24T16:11:40.122Z,26.60
2022-08-24T16:16:45.039Z,29.10
2022-08-24T16:22:06.060Z,27.60
2022-08-24T16:27:16.485Z,32.30
2022-08-24T16:32:50.145Z,26.10
2022-08-24T16:37:55.734Z,29.10
2022-08-24T16:42:59.581Z,30.80
2022-08-24T16:48:02.288Z,31.80
2022-08-24T16:53:05.528Z,28.42
2022-08-24T16:58:08.152Z,29.00
2022-08-24T17:03:14.799Z,28.87
2022-08-24T17:08:17.792Z,27.27
2022-08-24T17:18:46.307Z,27.97
2022-08-24T17:23:49.661Z,27.27
2022-08-24T17:28:56.418Z,29.02
2022-08-24T17:33:59.833Z,31.73
2022-08-24T17:39:03.947Z,28.67
2022-08-24T17:44:11.068Z,30.23
2022-08-24T17:49:14.638Z,32.55
2022-08-24T17:54:18.002Z,30.20
2022-08-24T17:59:28.601Z,32.95
2022-08-24T18:04:32.353Z,30.45
2022-08-24T18:09:52.128Z,29.40
2022-08-24T18:14:55.018Z,33.80
2022-08-24T18:19:58.788Z,28.83
2022-08-24T18:25:01.509Z,35.80
2022-08-24T18:30:07.791Z,36.73
2022-08-24T18:35:10.988Z,31.38
2022-08-24T18:40:21.284Z,33.33
2022-08-24T18:45:25.729Z,30.97
2022-08-24T18:50:32.881Z,35.65
2022-08-24T18:55:37.900Z,36.67
2022-08-24T19:00:41.376Z,39.47
2022-08-24T19:05:45.522Z,35.58
2022-08-24T19:10:48.230Z,32.78
2022-08-24T19:15:51.163Z,36.30
2022-08-24T19:20:56.022Z,33.83
2022-08-24T19:26:00.419Z,38.58
2022-08-24T19:31:04.471Z,37.13
2022-08-24T19:36:07.303Z,39.83
2022-08-24T19:41:12.570Z,38.90
2022-08-24T19:46:15.501Z,39.40
2022-08-24T19:51:18.556Z,40.43
2022-08-24T19:56:21.129Z,42.97
2022-08-24T20:01:35.881Z,44.67
2022-08-24T20:06:38.890Z,35.87
2022-08-24T20:11:44.223Z,39.30
2022-08-24T20:16:51.404Z,37.45
2022-08-24T20:21:54.077Z,36.37
2022-08-24T20:26:57.624Z,36.92
2022-08-24T20:32:02.735Z,35.33
2022-08-24T20:37:05.440Z,29.97
2022-08-24T20:42:12.308Z,36.60
2022-08-24T20:47:19.084Z,30.23
2022-08-24T20:52:21.837Z,35.00
2022-08-24T20:57:24.451Z,31.45
2022-08-24T21:02:26.990Z,25.50
2022-08-24T21:07:29.625Z,25.67
2022-08-24T21:12:32.873Z,23.02
2022-08-24T21:17:36.236Z,29.80
2022-08-24T21:22:38.911Z,23.23
2022-08-24T21:27:44.117Z,26.85
2022-08-24T21:33:05.644Z,29.55
2022-08-24T21:38:08.648Z,18.83
2022-08-24T21:43:14.706Z,21.25
2022-08-24T21:48:18.905Z,22.00
2022-08-24T21:53:21.541Z,17.30
2022-08-24T21:58:30.058Z,19.27
2022-08-24T22:03:38.081Z,19.30
2022-08-24T22:08:43.696Z,17.43
2022-08-24T22:13:46.839Z,19.48
2022-08-24T22:18:49.904Z,16.63
2022-08-24T22:23:52.571Z,21.30
2022-08-24T22:28:57.947Z,18.25
2022-08-24T22:34:04.214Z,18.43
2022-08-24T22:39:08.357Z,17.07
2022-08-24T22:44:19.894Z,17.27
2022-08-24T22:49:24.810Z,18.67
2022-08-24T22:54:27.504Z,12.50
2022-08-24T22:59:38.386Z,19.35
2022-08-24T23:04:44.036Z,19.43
2022-08-24T23:09:46.945Z,16.00
2022-08-24T23:14:51.540Z,15.05
2022-08-24T23:20:00.272Z,15.03
2022-08-24T23:25:04.254Z,16.55
2022-08-24T23:30:10.400Z,16.05
2022-08-24T23:35:13.180Z,16.73
2022-08-24T23:40:15.839Z,14.98
2022-08-24T23:45:18.801Z,16.95
2022-08-24T23:50:30.779Z,17.17
2022-08-24T23:55:33.299Z,17.33
